sensor_id;sensor_type;location;lat;lon;timestamp;pressure;altitude;pressure_sealevel;temperature;humidity
75886;BME280;64561;44.018;10.144;2023-03-31T00:00:13;101916.69;;;13.80;76.59
75886;BME280;64561;44.018;10.144;2023-03-31T00:02:40;101914.06;;;13.79;76.08
75886;BME280;64561;44.018;10.144;2023-03-31T00:05:08;101905.53;;;13.80;76.50
75886;BME280;64561;44.018;10.144;2023-03-31T00:07:36;101893.50;;;13.79;76.34
75886;BME280;64561;44.018;10.144;2023-03-31T00:10:06;101904.59;;;13.78;76.42
75886;BME280;64561;44.018;10.144;2023-03-31T00:12:43;101911.63;;;13.83;75.71
75886;BME280;64561;44.018;10.144;2023-03-31T00:15:11;101901.25;;;13.80;76.01
75886;BME280;64561;44.018;10.144;2023-03-31T00:17:38;101894.44;;;13.82;76.12
75886;BME280;64561;44.018;10.144;2023-03-31T00:20:06;101885.88;;;13.83;75.60
75886;BME280;64561;44.018;10.144;2023-03-31T00:22:38;101875.56;;;13.82;75.50
75886;BME280;64561;44.018;10.144;2023-03-31T00:25:11;101894.38;;;13.81;75.57
75886;BME280;64561;44.018;10.144;2023-03-31T00:27:43;101879.75;;;13.78;75.70
75886;BME280;64561;44.018;10.144;2023-03-31T00:30:12;101889.16;;;13.78;75.70
75886;BME280;64561;44.018;10.144;2023-03-31T00:32:39;101892.63;;;13.78;75.37
75886;BME280;64561;44.018;10.144;2023-03-31T00:35:06;101880.56;;;13.77;75.42
75886;BME280;64561;44.018;10.144;2023-03-31T00:37:34;101887.47;;;13.78;75.57
75886;BME280;64561;44.018;10.144;2023-03-31T00:40:02;101880.66;;;13.80;75.40
75886;BME280;64561;44.018;10.144;2023-03-31T00:42:42;101863.34;;;13.75;75.81
75886;BME280;64561;44.018;10.144;2023-03-31T00:47:45;101852.25;;;13.76;75.90
75886;BME280;64561;44.018;10.144;2023-03-31T00:50:25;101857.31;;;13.72;75.76
75886;BME280;64561;44.018;10.144;2023-03-31T00:53:04;101859.09;;;13.75;75.52
75886;BME280;64561;44.018;10.144;2023-03-31T00:55:37;101849.59;;;13.72;75.73
75886;BME280;64561;44.018;10.144;2023-03-31T00:58:06;101847.09;;;13.76;75.92
75886;BME280;64561;44.018;10.144;2023-03-31T01:00:35;101846.19;;;13.73;75.76
75886;BME280;64561;44.018;10.144;2023-03-31T01:03:04;101835.13;;;13.76;75.84
75886;BME280;64561;44.018;10.144;2023-03-31T01:05:43;101842.78;;;13.75;76.08
75886;BME280;64561;44.018;10.144;2023-03-31T01:08:12;101844.47;;;13.74;76.10
75886;BME280;64561;44.018;10.144;2023-03-31T01:10:43;101834.09;;;13.69;76.29
75886;BME280;64561;44.018;10.144;2023-03-31T01:13:12;101822.03;;;13.68;76.31
75886;BME280;64561;44.018;10.144;2023-03-31T01:15:41;101814.38;;;13.71;76.09
75886;BME280;64561;44.018;10.144;2023-03-31T01:18:08;101801.44;;;13.68;75.97
75886;BME280;64561;44.018;10.144;2023-03-31T01:20:57;101806.59;;;13.68;76.19
75886;BME280;64561;44.018;10.144;2023-03-31T01:29:24;101812.50;;;13.64;76.11
75886;BME280;64561;44.018;10.144;2023-03-31T01:42:58;101773.44;;;13.47;76.46
75886;BME280;64561;44.018;10.144;2023-03-31T01:48:16;101761.31;;;13.42;76.47
75886;BME280;64561;44.018;10.144;2023-03-31T01:50:56;101759.41;;;13.35;76.48
75886;BME280;64561;44.018;10.144;2023-03-31T01:53:33;101748.09;;;13.30;76.75
75886;BME280;64561;44.018;10.144;2023-03-31T01:56:17;101741.22;;;13.27;76.97
75886;BME280;64561;44.018;10.144;2023-03-31T01:58:55;101740.38;;;13.28;77.03
75886;BME280;64561;44.018;10.144;2023-03-31T02:01:29;101736.97;;;13.29;76.53
75886;BME280;64561;44.018;10.144;2023-03-31T02:04:06;101741.16;;;13.25;76.59
75886;BME280;64561;44.018;10.144;2023-03-31T02:06:41;101744.53;;;13.24;76.43
75886;BME280;64561;44.018;10.144;2023-03-31T02:09:22;101735.88;;;13.21;76.35
75886;BME280;64561;44.018;10.144;2023-03-31T02:11:50;101727.16;;;13.16;76.90
75886;BME280;64561;44.018;10.144;2023-03-31T02:14:21;101731.28;;;13.11;77.28
75886;BME280;64561;44.018;10.144;2023-03-31T02:16:53;101735.63;;;13.13;77.61
75886;BME280;64561;44.018;10.144;2023-03-31T02:19:28;101724.31;;;13.07;77.36
75886;BME280;64561;44.018;10.144;2023-03-31T02:21:57;101723.41;;;13.04;77.55
75886;BME280;64561;44.018;10.144;2023-03-31T02:24:26;101723.28;;;13.00;77.23
75886;BME280;64561;44.018;10.144;2023-03-31T02:27:02;101726.47;;;12.91;77.24
75886;BME280;64561;44.018;10.144;2023-03-31T02:29:32;101728.78;;;12.84;77.42
75886;BME280;64561;44.018;10.144;2023-03-31T02:32:21;101737.94;;;12.74;77.71
75886;BME280;64561;44.018;10.144;2023-03-31T02:34:50;101737.78;;;12.69;77.43
75886;BME280;64561;44.018;10.144;2023-03-31T02:37:17;101740.22;;;12.65;77.82
75886;BME280;64561;44.018;10.144;2023-03-31T02:39:46;101751.00;;;12.53;78.42
75886;BME280;64561;44.018;10.144;2023-03-31T02:42:15;101755.00;;;12.45;79.04
75886;BME280;64561;44.018;10.144;2023-03-31T02:44:42;101756.50;;;12.38;79.56
75886;BME280;64561;44.018;10.144;2023-03-31T02:47:12;101760.03;;;12.42;79.72
75886;BME280;64561;44.018;10.144;2023-03-31T02:49:48;101758.44;;;12.45;79.83
75886;BME280;64561;44.018;10.144;2023-03-31T03:01:10;101695.91;;;12.72;79.95
75886;BME280;64561;44.018;10.144;2023-03-31T03:06:42;101684.44;;;12.89;79.44
75886;BME280;64561;44.018;10.144;2023-03-31T03:09:36;101672.69;;;12.97;79.20
75886;BME280;64561;44.018;10.144;2023-03-31T03:15:29;101687.56;;;13.09;78.53
75886;BME280;64561;44.018;10.144;2023-03-31T03:17:58;101689.34;;;13.12;78.76
75886;BME280;64561;44.018;10.144;2023-03-31T03:20:26;101696.31;;;13.16;78.35
75886;BME280;64561;44.018;10.144;2023-03-31T03:22:53;101700.66;;;13.18;78.22
75886;BME280;64561;44.018;10.144;2023-03-31T03:25:20;101705.03;;;13.21;78.32
75886;BME280;64561;44.018;10.144;2023-03-31T03:27:47;101702.41;;;13.19;78.20
75886;BME280;64561;44.018;10.144;2023-03-31T03:30:19;101708.50;;;13.23;78.32
75886;BME280;64561;44.018;10.144;2023-03-31T03:32:46;101710.19;;;13.22;78.20
75886;BME280;64561;44.018;10.144;2023-03-31T03:35:13;101708.53;;;13.24;78.27
75886;BME280;64561;44.018;10.144;2023-03-31T03:37:39;101708.59;;;13.26;78.38
75886;BME280;64561;44.018;10.144;2023-03-31T03:40:07;101700.94;;;13.27;78.46
75886;BME280;64561;44.018;10.144;2023-03-31T03:42:34;101698.38;;;13.27;78.32
75886;BME280;64561;44.018;10.144;2023-03-31T03:45:01;101683.81;;;13.28;77.98
75886;BME280;64561;44.018;10.144;2023-03-31T03:47:28;101689.00;;;13.30;77.66
75886;BME280;64561;44.018;10.144;2023-03-31T03:49:55;101685.59;;;13.31;77.48
75886;BME280;64561;44.018;10.144;2023-03-31T03:52:22;101687.34;;;13.32;77.54
75886;BME280;64561;44.018;10.144;2023-03-31T03:54:49;101675.41;;;13.34;77.45
75886;BME280;64561;44.018;10.144;2023-03-31T03:57:15;101671.06;;;13.33;77.39
75886;BME280;64561;44.018;10.144;2023-03-31T03:59:42;101671.97;;;13.33;77.70
75886;BME280;64561;44.018;10.144;2023-03-31T04:02:09;101685.72;;;13.35;77.35
75886;BME280;64561;44.018;10.144;2023-03-31T04:04:36;101691.75;;;13.36;77.23
75886;BME280;64561;44.018;10.144;2023-03-31T04:07:03;101677.97;;;13.34;77.20
75886;BME280;64561;44.018;10.144;2023-03-31T04:09:30;101683.97;;;13.34;77.38
75886;BME280;64561;44.018;10.144;2023-03-31T04:11:56;101696.91;;;13.36;77.42
75886;BME280;64561;44.018;10.144;2023-03-31T04:14:24;101690.03;;;13.36;77.25
75886;BME280;64561;44.018;10.144;2023-03-31T04:16:52;101686.50;;;13.33;77.29
75886;BME280;64561;44.018;10.144;2023-03-31T04:19:22;101685.69;;;13.34;77.35
75886;BME280;64561;44.018;10.144;2023-03-31T04:21:52;101677.97;;;13.34;77.46
75886;BME280;64561;44.018;10.144;2023-03-31T04:24:25;101671.13;;;13.34;77.50
75886;BME280;64561;44.018;10.144;2023-03-31T04:26:56;101662.56;;;13.34;77.25
75886;BME280;64561;44.018;10.144;2023-03-31T04:29:27;101668.50;;;13.33;77.79
75886;BME280;64561;44.018;10.144;2023-03-31T04:31:54;101667.69;;;13.34;77.70
75886;BME280;64561;44.018;10.144;2023-03-31T04:34:25;101653.09;;;13.33;77.66
75886;BME280;64561;44.018;10.144;2023-03-31T04:37:01;101649.63;;;13.31;77.68
75886;BME280;64561;44.018;10.144;2023-03-31T04:39:29;101638.41;;;13.29;77.91
75886;BME280;64561;44.018;10.144;2023-03-31T04:41:58;101635.94;;;13.32;77.61
75886;BME280;64561;44.018;10.144;2023-03-31T04:44:25;101634.19;;;13.31;78.01
75886;BME280;64561;44.018;10.144;2023-03-31T04:46:53;101632.50;;;13.31;78.43
75886;BME280;64561;44.018;10.144;2023-03-31T04:49:20;101635.00;;;13.28;78.53
75886;BME280;64561;44.018;10.144;2023-03-31T04:51:46;101637.59;;;13.30;78.25
75886;BME280;64561;44.018;10.144;2023-03-31T04:54:13;101627.44;;;13.34;78.30
75886;BME280;64561;44.018;10.144;2023-03-31T04:56:40;101612.00;;;13.34;78.26
75886;BME280;64561;44.018;10.144;2023-03-31T04:59:07;101612.09;;;13.37;78.13
75886;BME280;64561;44.018;10.144;2023-03-31T05:01:34;101614.56;;;13.34;78.02
75886;BME280;64561;44.018;10.144;2023-03-31T05:04:03;101618.94;;;13.37;77.93
75886;BME280;64561;44.018;10.144;2023-03-31T05:06:31;101613.97;;;13.44;77.64
75886;BME280;64561;44.018;10.144;2023-03-31T05:08:58;101620.75;;;13.41;77.66
75886;BME280;64561;44.018;10.144;2023-03-31T05:11:25;101619.94;;;13.43;78.03
75886;BME280;64561;44.018;10.144;2023-03-31T05:13:53;101606.78;;;13.31;77.83
75886;BME280;64561;44.018;10.144;2023-03-31T05:16:20;101593.97;;;13.33;77.61
75886;BME280;64561;44.018;10.144;2023-03-31T05:18:47;101607.72;;;13.35;77.80
75886;BME280;64561;44.018;10.144;2023-03-31T05:21:16;101625.00;;;13.40;77.59
75886;BME280;64561;44.018;10.144;2023-03-31T05:23:44;101630.22;;;13.43;77.84
75886;BME280;64561;44.018;10.144;2023-03-31T05:26:11;101607.06;;;13.42;77.94
75886;BME280;64561;44.018;10.144;2023-03-31T05:28:39;101604.56;;;13.45;77.60
75886;BME280;64561;44.018;10.144;2023-03-31T05:31:07;101600.31;;;13.45;77.75
75886;BME280;64561;44.018;10.144;2023-03-31T05:33:35;101593.44;;;13.46;77.84
75886;BME280;64561;44.018;10.144;2023-03-31T05:36:11;101596.97;;;13.49;77.89
75886;BME280;64561;44.018;10.144;2023-03-31T05:38:38;101591.81;;;13.49;77.50
75886;BME280;64561;44.018;10.144;2023-03-31T05:41:05;101580.59;;;13.46;77.40
75886;BME280;64561;44.018;10.144;2023-03-31T05:43:36;101588.47;;;13.52;77.81
75886;BME280;64561;44.018;10.144;2023-03-31T05:46:03;101578.97;;;13.49;78.00
75886;BME280;64561;44.018;10.144;2023-03-31T05:48:32;101579.00;;;13.51;77.93
75886;BME280;64561;44.018;10.144;2023-03-31T05:50:59;101575.53;;;13.49;77.83
75886;BME280;64561;44.018;10.144;2023-03-31T05:53:27;101587.63;;;13.53;77.97
75886;BME280;64561;44.018;10.144;2023-03-31T05:55:58;101583.31;;;13.52;77.95
75886;BME280;64561;44.018;10.144;2023-03-31T05:58:27;101580.69;;;13.50;77.95
75886;BME280;64561;44.018;10.144;2023-03-31T06:01:23;101597.22;;;13.60;77.38
75886;BME280;64561;44.018;10.144;2023-03-31T06:03:50;101598.09;;;13.61;76.97
75886;BME280;64561;44.018;10.144;2023-03-31T06:06:17;101606.63;;;13.60;77.11
75886;BME280;64561;44.018;10.144;2023-03-31T06:08:45;101601.38;;;13.55;77.52
75886;BME280;64561;44.018;10.144;2023-03-31T06:11:15;101617.00;;;13.63;77.75
75886;BME280;64561;44.018;10.144;2023-03-31T06:13:42;101610.97;;;13.61;78.03
75886;BME280;64561;44.018;10.144;2023-03-31T06:16:11;101622.16;;;13.63;78.23
75886;BME280;64561;44.018;10.144;2023-03-31T06:18:39;101622.19;;;13.64;77.96
75886;BME280;64561;44.018;10.144;2023-03-31T06:21:06;101617.03;;;13.64;78.17
75886;BME280;64561;44.018;10.144;2023-03-31T06:23:34;101603.34;;;13.65;78.15
75886;BME280;64561;44.018;10.144;2023-03-31T06:26:06;101595.69;;;13.68;78.02
75886;BME280;64561;44.018;10.144;2023-03-31T06:28:35;101596.59;;;13.70;78.14
75886;BME280;64561;44.018;10.144;2023-03-31T06:31:07;101594.09;;;13.73;77.74
75886;BME280;64561;44.018;10.144;2023-03-31T06:33:35;101587.31;;;13.76;77.56
75886;BME280;64561;44.018;10.144;2023-03-31T06:36:02;101581.38;;;13.78;77.70
75886;BME280;64561;44.018;10.144;2023-03-31T06:38:33;101559.00;;;13.76;77.85
75886;BME280;64561;44.018;10.144;2023-03-31T06:41:00;101561.78;;;13.85;77.65
75886;BME280;64561;44.018;10.144;2023-03-31T06:43:27;101562.66;;;13.85;77.52
75886;BME280;64561;44.018;10.144;2023-03-31T06:45:54;101549.66;;;13.81;78.09
75886;BME280;64561;44.018;10.144;2023-03-31T06:48:23;101541.13;;;13.82;77.94
75886;BME280;64561;44.018;10.144;2023-03-31T06:50:52;101545.50;;;13.86;77.95
75886;BME280;64561;44.018;10.144;2023-03-31T06:53:20;101542.09;;;13.87;77.89
75886;BME280;64561;44.018;10.144;2023-03-31T06:55:50;101540.44;;;13.89;78.11
75886;BME280;64561;44.018;10.144;2023-03-31T06:58:17;101541.34;;;13.91;78.18
75886;BME280;64561;44.018;10.144;2023-03-31T07:00:44;101532.81;;;13.93;78.08
75886;BME280;64561;44.018;10.144;2023-03-31T07:03:14;101530.19;;;13.92;78.30
75886;BME280;64561;44.018;10.144;2023-03-31T07:05:48;101528.63;;;13.99;78.28
75886;BME280;64561;44.018;10.144;2023-03-31T07:08:16;101521.81;;;14.01;77.98
75886;BME280;64561;44.018;10.144;2023-03-31T07:10:44;101523.59;;;14.03;77.86
75886;BME280;64561;44.018;10.144;2023-03-31T07:13:14;101517.44;;;13.97;77.99
75886;BME280;64561;44.018;10.144;2023-03-31T07:15:42;101519.44;;;14.10;77.45
75886;BME280;64561;44.018;10.144;2023-03-31T07:18:09;101522.09;;;14.14;77.55
75886;BME280;64561;44.018;10.144;2023-03-31T07:20:36;101525.50;;;14.13;77.63
75886;BME280;64561;44.018;10.144;2023-03-31T07:23:04;101535.00;;;14.16;78.58
75886;BME280;64561;44.018;10.144;2023-03-31T07:25:32;101524.81;;;14.21;78.16
75886;BME280;64561;44.018;10.144;2023-03-31T07:27:58;101518.88;;;14.25;77.94
75886;BME280;64561;44.018;10.144;2023-03-31T07:30:26;101515.50;;;14.29;78.21
75886;BME280;64561;44.018;10.144;2023-03-31T07:32:53;101522.38;;;14.28;78.01
75886;BME280;64561;44.018;10.144;2023-03-31T07:35:20;101525.88;;;14.32;78.05
75886;BME280;64561;44.018;10.144;2023-03-31T07:37:49;101530.97;;;14.29;77.96
75886;BME280;64561;44.018;10.144;2023-03-31T07:40:20;101536.94;;;14.28;78.04
75886;BME280;64561;44.018;10.144;2023-03-31T07:42:48;101525.00;;;14.31;78.19
75886;BME280;64561;44.018;10.144;2023-03-31T07:45:19;101525.78;;;14.27;78.26
75886;BME280;64561;44.018;10.144;2023-03-31T07:47:47;101530.34;;;14.40;77.34
75886;BME280;64561;44.018;10.144;2023-03-31T07:50:15;101520.84;;;14.38;77.53
75886;BME280;64561;44.018;10.144;2023-03-31T07:52:43;101530.34;;;14.40;78.09
75886;BME280;64561;44.018;10.144;2023-03-31T07:55:13;101531.28;;;14.44;78.48
75886;BME280;64561;44.018;10.144;2023-03-31T07:57:40;101522.72;;;14.45;78.41
75886;BME280;64561;44.018;10.144;2023-03-31T08:00:09;101523.84;;;14.58;77.96
75886;BME280;64561;44.018;10.144;2023-03-31T08:02:39;101511.94;;;14.64;77.60
75886;BME280;64561;44.018;10.144;2023-03-31T08:05:10;101513.88;;;14.76;76.73
75886;BME280;64561;44.018;10.144;2023-03-31T08:07:39;101505.16;;;14.70;77.11
75886;BME280;64561;44.018;10.144;2023-03-31T08:10:10;101493.09;;;14.66;77.48
75886;BME280;64561;44.018;10.144;2023-03-31T08:12:38;101499.16;;;14.69;76.96
75886;BME280;64561;44.018;10.144;2023-03-31T08:15:05;101486.22;;;14.66;77.21
75886;BME280;64561;44.018;10.144;2023-03-31T08:17:32;101483.66;;;14.68;76.94
75886;BME280;64561;44.018;10.144;2023-03-31T08:19:59;101487.03;;;14.63;77.21
75886;BME280;64561;44.018;10.144;2023-03-31T08:22:31;101499.00;;;14.61;77.59
75886;BME280;64561;44.018;10.144;2023-03-31T08:24:58;101505.06;;;14.65;77.99
75886;BME280;64561;44.018;10.144;2023-03-31T08:27:25;101515.38;;;14.65;77.86
75886;BME280;64561;44.018;10.144;2023-03-31T08:29:52;101514.44;;;14.61;77.82
75886;BME280;64561;44.018;10.144;2023-03-31T08:32:22;101507.56;;;14.60;77.34
75886;BME280;64561;44.018;10.144;2023-03-31T08:34:52;101513.63;;;14.62;77.40
75886;BME280;64561;44.018;10.144;2023-03-31T08:37:19;101504.97;;;14.59;77.71
75886;BME280;64561;44.018;10.144;2023-03-31T08:39:46;101516.09;;;14.56;78.43
75886;BME280;64561;44.018;10.144;2023-03-31T08:42:16;101509.19;;;14.55;78.09
75886;BME280;64561;44.018;10.144;2023-03-31T08:47:22;101505.00;;;14.62;78.18
75886;BME280;64561;44.018;10.144;2023-03-31T08:49:53;101492.19;;;14.63;78.05
75886;BME280;64561;44.018;10.144;2023-03-31T08:52:32;101485.34;;;14.66;77.68
75886;BME280;64561;44.018;10.144;2023-03-31T08:55:04;101492.97;;;14.59;77.99
75886;BME280;64561;44.018;10.144;2023-03-31T08:58:05;101491.31;;;14.64;78.12
75886;BME280;64561;44.018;10.144;2023-03-31T09:00:44;101486.28;;;14.69;77.74
75886;BME280;64561;44.018;10.144;2023-03-31T09:03:25;101489.72;;;14.70;77.02
75886;BME280;64561;44.018;10.144;2023-03-31T09:06:17;101486.22;;;14.68;77.28
75886;BME280;64561;44.018;10.144;2023-03-31T09:08:46;101475.88;;;14.64;77.05
75886;BME280;64561;44.018;10.144;2023-03-31T09:14:06;101477.56;;;14.62;77.33
75886;BME280;64561;44.018;10.144;2023-03-31T09:16:53;101475.81;;;14.61;77.06
75886;BME280;64561;44.018;10.144;2023-03-31T09:21:57;101478.34;;;14.58;77.33
75886;BME280;64561;44.018;10.144;2023-03-31T09:24:30;101479.19;;;14.57;77.79
75886;BME280;64561;44.018;10.144;2023-03-31T09:27:06;101486.00;;;14.54;78.42
75886;BME280;64561;44.018;10.144;2023-03-31T09:29:41;101490.28;;;14.55;78.42
75886;BME280;64561;44.018;10.144;2023-03-31T09:32:21;101491.06;;;14.51;78.06
75886;BME280;64561;44.018;10.144;2023-03-31T09:34:53;101489.31;;;14.50;78.19
75886;BME280;64561;44.018;10.144;2023-03-31T09:37:26;101481.81;;;14.60;77.56
75886;BME280;64561;44.018;10.144;2023-03-31T09:39:56;101480.16;;;14.62;77.54
75886;BME280;64561;44.018;10.144;2023-03-31T09:42:23;101478.34;;;14.58;77.80
75886;BME280;64561;44.018;10.144;2023-03-31T09:44:51;101485.34;;;14.66;77.78
75886;BME280;64561;44.018;10.144;2023-03-31T09:47:30;101482.72;;;14.64;77.87
75886;BME280;64561;44.018;10.144;2023-03-31T09:49:58;101480.25;;;14.69;78.04
75886;BME280;64561;44.018;10.144;2023-03-31T09:52:31;101467.38;;;14.69;78.45
75886;BME280;64561;44.018;10.144;2023-03-31T09:55:17;101458.00;;;14.74;78.71
75886;BME280;64561;44.018;10.144;2023-03-31T09:58:05;101450.25;;;14.74;78.60
75886;BME280;64561;44.018;10.144;2023-03-31T10:00:33;101448.59;;;14.74;78.23
75886;BME280;64561;44.018;10.144;2023-03-31T10:03:03;101431.38;;;14.73;78.48
75886;BME280;64561;44.018;10.144;2023-03-31T10:05:36;101439.19;;;14.79;78.27
75886;BME280;64561;44.018;10.144;2023-03-31T10:08:32;101422.81;;;14.74;78.74
75886;BME280;64561;44.018;10.144;2023-03-31T10:13:51;101416.81;;;14.75;78.60
75886;BME280;64561;44.018;10.144;2023-03-31T10:18:53;101397.25;;;14.86;78.03
75886;BME280;64561;44.018;10.144;2023-03-31T10:21:25;101387.81;;;14.87;77.31
75886;BME280;64561;44.018;10.144;2023-03-31T10:23:53;101375.75;;;14.86;78.05
75886;BME280;64561;44.018;10.144;2023-03-31T10:26:24;101378.41;;;14.91;77.59
75886;BME280;64561;44.018;10.144;2023-03-31T10:28:52;101377.41;;;14.82;78.20
75886;BME280;64561;44.018;10.144;2023-03-31T10:31:25;101382.63;;;14.85;78.31
75886;BME280;64561;44.018;10.144;2023-03-31T10:33:53;101376.56;;;14.82;78.55
75886;BME280;64561;44.018;10.144;2023-03-31T10:36:24;101366.19;;;14.79;78.81
75886;BME280;64561;44.018;10.144;2023-03-31T10:38:52;101372.25;;;14.81;78.63
75886;BME280;64561;44.018;10.144;2023-03-31T10:41:22;101367.88;;;14.77;78.42
75886;BME280;64561;44.018;10.144;2023-03-31T10:43:52;101380.84;;;14.81;78.97
75886;BME280;64561;44.018;10.144;2023-03-31T10:46:20;101383.38;;;14.78;79.27
75886;BME280;64561;44.018;10.144;2023-03-31T10:51:55;101367.00;;;14.75;78.68
75886;BME280;64561;44.018;10.144;2023-03-31T10:54:24;101360.09;;;14.74;78.65
75886;BME280;64561;44.018;10.144;2023-03-31T10:56:53;101343.78;;;14.72;78.33
75886;BME280;64561;44.018;10.144;2023-03-31T11:05:30;101339.41;;;14.68;79.13
75886;BME280;64561;44.018;10.144;2023-03-31T11:08:01;101332.44;;;14.62;79.49
75886;BME280;64561;44.018;10.144;2023-03-31T11:10:36;101334.19;;;14.63;79.68
75886;BME280;64561;44.018;10.144;2023-03-31T11:18:38;101335.00;;;14.62;80.48
75886;BME280;64561;44.018;10.144;2023-03-31T11:27:21;101322.97;;;14.59;80.17
75886;BME280;64561;44.018;10.144;2023-03-31T11:30:26;101305.81;;;14.61;80.30
75886;BME280;64561;44.018;10.144;2023-03-31T11:33:10;101309.25;;;14.60;79.97
75886;BME280;64561;44.018;10.144;2023-03-31T11:41:28;101307.53;;;14.59;80.60
75886;BME280;64561;44.018;10.144;2023-03-31T11:44:02;101291.19;;;14.59;80.57
75886;BME280;64561;44.018;10.144;2023-03-31T11:51:41;101274.09;;;14.62;80.59
75886;BME280;64561;44.018;10.144;2023-03-31T11:54:45;101270.63;;;14.62;80.50
75886;BME280;64561;44.018;10.144;2023-03-31T11:57:30;101281.88;;;14.66;80.67
75886;BME280;64561;44.018;10.144;2023-03-31T12:00:08;101258.56;;;14.58;81.03
75886;BME280;64561;44.018;10.144;2023-03-31T12:05:12;101247.34;;;14.56;82.27
75886;BME280;64561;44.018;10.144;2023-03-31T12:07:57;101246.41;;;14.51;82.99
75886;BME280;64561;44.018;10.144;2023-03-31T12:10:37;101244.66;;;14.48;83.51
75886;BME280;64561;44.018;10.144;2023-03-31T12:16:05;101236.94;;;14.48;84.76
75886;BME280;64561;44.018;10.144;2023-03-31T12:21:21;101213.72;;;14.45;84.13
75886;BME280;64561;44.018;10.144;2023-03-31T12:23:49;101193.13;;;14.45;84.46
75886;BME280;64561;44.018;10.144;2023-03-31T12:28:57;101163.91;;;14.43;84.50
75886;BME280;64561;44.018;10.144;2023-03-31T12:31:26;101170.75;;;14.43;84.52
75886;BME280;64561;44.018;10.144;2023-03-31T12:34:06;101166.50;;;14.45;83.60
75886;BME280;64561;44.018;10.144;2023-03-31T12:39:30;101189.63;;;14.41;81.84
75886;BME280;64561;44.018;10.144;2023-03-31T12:44:58;101181.88;;;14.40;82.13
75886;BME280;64561;44.018;10.144;2023-03-31T12:55:41;101145.16;;;14.52;80.38
75886;BME280;64561;44.018;10.144;2023-03-31T13:03:45;101134.94;;;14.58;79.73
75886;BME280;64561;44.018;10.144;2023-03-31T13:14:13;101113.44;;;14.56;79.16
75886;BME280;64561;44.018;10.144;2023-03-31T13:16:42;101114.34;;;14.56;79.41
75886;BME280;64561;44.018;10.144;2023-03-31T13:19:11;101104.91;;;14.58;79.11
75886;BME280;64561;44.018;10.144;2023-03-31T13:21:53;101098.06;;;14.60;78.67
75886;BME280;64561;44.018;10.144;2023-03-31T13:24:21;101096.31;;;14.58;79.17
75886;BME280;64561;44.018;10.144;2023-03-31T13:26:49;101105.78;;;14.60;79.11
75886;BME280;64561;44.018;10.144;2023-03-31T13:34:32;101094.53;;;14.52;79.22
75886;BME280;64561;44.018;10.144;2023-03-31T14:00:12;101081.66;;;14.52;80.75
75886;BME280;64561;44.018;10.144;2023-03-31T14:05:38;101067.06;;;14.51;80.02
75886;BME280;64561;44.018;10.144;2023-03-31T14:08:10;101074.78;;;14.51;79.86
75886;BME280;64561;44.018;10.144;2023-03-31T14:10:41;101061.78;;;14.47;80.23
75886;BME280;64561;44.018;10.144;2023-03-31T14:13:13;101059.19;;;14.42;81.19
75886;BME280;64561;44.018;10.144;2023-03-31T14:15:55;101053.97;;;14.37;81.68
75886;BME280;64561;44.018;10.144;2023-03-31T14:18:33;101047.09;;;14.38;81.97
75886;BME280;64561;44.018;10.144;2023-03-31T14:21:11;101043.63;;;14.34;82.04
75886;BME280;64561;44.018;10.144;2023-03-31T14:23:54;101041.94;;;14.38;82.05
75886;BME280;64561;44.018;10.144;2023-03-31T14:29:35;101032.44;;;14.29;82.08
75886;BME280;64561;44.018;10.144;2023-03-31T14:32:12;101031.50;;;14.26;82.90
75886;BME280;64561;44.018;10.144;2023-03-31T14:37:33;101022.91;;;14.21;84.10
75886;BME280;64561;44.018;10.144;2023-03-31T14:40:01;101015.06;;;14.13;84.73
75886;BME280;64561;44.018;10.144;2023-03-31T14:42:36;101016.75;;;14.11;85.44
75886;BME280;64561;44.018;10.144;2023-03-31T14:45:10;101015.91;;;14.12;85.83
75886;BME280;64561;44.018;10.144;2023-03-31T14:47:40;101015.88;;;14.09;86.36
75886;BME280;64561;44.018;10.144;2023-03-31T14:50:11;101009.00;;;14.06;86.72
75886;BME280;64561;44.018;10.144;2023-03-31T14:52:39;101002.97;;;14.06;87.16
75886;BME280;64561;44.018;10.144;2023-03-31T14:55:13;100997.84;;;14.07;87.03
75886;BME280;64561;44.018;10.144;2023-03-31T14:57:42;100992.63;;;14.01;87.54
75886;BME280;64561;44.018;10.144;2023-03-31T15:00:14;100996.09;;;14.03;87.78
75886;BME280;64561;44.018;10.144;2023-03-31T15:02:44;100990.00;;;13.98;88.24
75886;BME280;64561;44.018;10.144;2023-03-31T15:05:30;100990.00;;;13.97;88.46
75886;BME280;64561;44.018;10.144;2023-03-31T15:08:03;100994.31;;;13.99;88.28
75886;BME280;64561;44.018;10.144;2023-03-31T15:10:39;100988.28;;;13.97;88.69
75886;BME280;64561;44.018;10.144;2023-03-31T15:13:14;100984.84;;;13.97;88.90
75886;BME280;64561;44.018;10.144;2023-03-31T15:15:42;100996.78;;;13.90;89.02
75886;BME280;64561;44.018;10.144;2023-03-31T15:18:13;100990.78;;;13.91;88.59
75886;BME280;64561;44.018;10.144;2023-03-31T15:20:43;100995.88;;;13.88;88.52
75886;BME280;64561;44.018;10.144;2023-03-31T15:23:25;100989.69;;;13.73;88.90
75886;BME280;64561;44.018;10.144;2023-03-31T15:25:57;100980.22;;;13.71;89.23
75886;BME280;64561;44.018;10.144;2023-03-31T15:28:24;100975.94;;;13.71;89.26
75886;BME280;64561;44.018;10.144;2023-03-31T15:30:53;100969.94;;;13.71;89.25
75886;BME280;64561;44.018;10.144;2023-03-31T15:33:36;100951.94;;;13.69;88.97
75886;BME280;64561;44.018;10.144;2023-03-31T15:36:10;100944.22;;;13.69;89.20
75886;BME280;64561;44.018;10.144;2023-03-31T15:38:38;100936.50;;;13.71;89.07